Time;durP1;ratioP1;P1;durP2;ratioP2;P2;SDS_P1;SDS_P2;PMS_P1;PMS_P2;Temp;Humidity;BMP_temperature;BMP_pressure;BME280_temperature;BME280_humidity;BME280_pressure;Samples;Min_cycle;Max_cycle;Signal;HPM_P1;HPM_P2
2022/09/12 00:00:14;;;;;;;;;8.20;8.20;28.70;99.90;;;;;;4970738;28;8859;-68
2022/09/12 00:02:47;;;;;;;;;8.60;8.60;28.70;99.90;;;;;;4953384;28;8903;-69
2022/09/12 00:05:21;;;;;;;;;8.20;8.20;28.60;99.90;;;;;;4961267;28;8894;-69
2022/09/12 00:07:52;;;;;;;;;7.40;7.40;28.60;99.90;;;;;;4950967;28;8881;-67
2022/09/12 00:10:23;;;;;;;;;7.80;7.80;28.50;99.90;;;;;;4958530;28;9695;-65
2022/09/12 00:12:59;;;;;;;;;8.00;8.00;28.50;99.90;;;;;;4963741;28;9820;-66
2022/09/12 00:15:30;;;;;;;;;8.00;8.00;28.40;99.90;;;;;;4983309;28;8878;-65
2022/09/12 00:18:01;;;;;;;;;7.80;7.80;28.40;99.90;;;;;;4953563;28;8847;-67
2022/09/12 00:20:35;;;;;;;;;7.60;7.60;28.40;99.90;;;;;;4958723;28;8846;-65
2022/09/12 00:23:08;;;;;;;;;6.80;6.80;28.40;99.90;;;;;;4952233;28;9664;-66
2022/09/12 00:25:45;;;;;;;;;6.80;6.80;28.30;99.90;;;;;;4953761;28;8842;-65
2022/09/12 00:28:18;;;;;;;;;7.40;7.40;28.30;99.90;;;;;;4953992;28;8879;-66
2022/09/12 00:30:49;;;;;;;;;7.80;7.80;28.20;99.90;;;;;;4972862;28;8858;-68
2022/09/12 00:33:20;;;;;;;;;6.80;6.80;28.10;99.90;;;;;;4948826;28;8870;-68
2022/09/12 00:35:52;;;;;;;;;9.00;9.00;28.10;99.90;;;;;;4972179;28;8890;-65
2022/09/12 00:38:26;;;;;;;;;6.80;6.80;28.10;99.90;;;;;;4953912;28;8850;-67
2022/09/12 00:40:59;;;;;;;;;7.00;7.00;28.00;99.90;;;;;;4983617;28;8917;-65
2022/09/12 00:43:40;;;;;;;;;7.40;7.40;28.00;99.90;;;;;;4980282;28;8851;-65
2022/09/12 00:46:26;;;;;;;;;7.40;7.40;27.90;99.90;;;;;;4954824;28;8883;-67
2022/09/12 00:49:16;;;;;;;;;8.00;8.00;27.90;99.90;;;;;;4984405;28;8889;-69
2022/09/12 00:52:03;;;;;;;;;7.40;7.40;27.90;99.90;;;;;;4973794;28;8870;-69
2022/09/12 00:55:16;;;;;;;;;6.00;6.00;27.80;99.90;;;;;;4984572;28;9499;-66
2022/09/12 00:57:52;;;;;;;;;8.40;8.40;27.80;99.90;;;;;;4953067;28;8867;-65
2022/09/12 01:00:27;;;;;;;;;7.20;7.20;27.70;99.90;;;;;;4955583;28;8917;-67
2022/09/12 01:03:03;;;;;;;;;8.80;8.80;27.70;99.90;;;;;;4959231;28;8985;-68
2022/09/12 01:05:43;;;;;;;;;7.80;7.80;27.70;99.90;;;;;;4971648;28;8877;-65
2022/09/12 01:08:15;;;;;;;;;8.80;8.80;27.60;99.90;;;;;;4967025;28;8873;-66
2022/09/12 01:10:49;;;;;;;;;9.00;9.00;27.60;99.90;;;;;;4957056;28;8893;-67
2022/09/12 01:13:19;;;;;;;;;7.20;7.20;27.60;99.90;;;;;;4959525;28;8909;-68
2022/09/12 01:15:51;;;;;;;;;9.00;9.00;27.50;99.90;;;;;;4959280;28;8893;-68
2022/09/12 01:18:45;;;;;;;;;4.50;4.50;27.50;99.90;;;;;;4985749;28;8811;-67
2022/09/12 01:21:33;;;;;;;;;10.00;10.00;27.40;99.90;;;;;;4956478;28;8895;-66
2022/09/12 01:24:34;;;;;;;;;11.40;11.40;27.40;99.90;;;;;;4956269;28;8859;-68
2022/09/12 01:27:15;;;;;;;;;10.25;10.25;27.40;99.90;;;;;;4956072;28;8858;-69
2022/09/12 01:30:21;;;;;;;;;11.40;11.40;27.30;99.90;;;;;;4952431;28;9385;-65
2022/09/12 01:32:56;;;;;;;;;10.00;10.00;27.30;99.90;;;;;;4945329;28;8866;-66
2022/09/12 01:35:54;;;;;;;;;11.75;11.75;27.30;99.90;;;;;;4971309;28;8930;-67
2022/09/12 01:38:27;;;;;;;;;9.25;9.25;27.20;99.90;;;;;;4955113;28;8863;-66
2022/09/12 01:41:30;;;;;;;;;9.00;9.00;27.20;99.90;;;;;;4958275;28;8853;-66
2022/09/12 01:44:12;;;;;;;;;8.25;8.25;27.20;99.90;;;;;;4950439;28;8843;-66
2022/09/12 01:46:53;;;;;;;;;10.00;10.00;27.10;99.90;;;;;;4958822;28;9608;-67
2022/09/12 01:49:25;;;;;;;;;8.80;8.80;27.10;99.90;;;;;;4971115;28;9497;-66
2022/09/12 01:52:19;;;;;;;;;8.25;8.25;27.10;99.90;;;;;;4955103;28;9005;-66
2022/09/12 01:55:00;;;;;;;;;7.20;7.20;27.00;99.90;;;;;;4960040;28;8883;-67
2022/09/12 01:57:53;;;;;;;;;8.20;8.20;27.10;99.90;;;;;;4970555;28;8839;-66
2022/09/12 02:00:25;;;;;;;;;9.80;9.80;27.00;99.90;;;;;;4980141;28;8925;-67
2022/09/12 02:03:10;;;;;;;;;7.80;7.80;26.90;99.90;;;;;;4959544;28;8913;-67
2022/09/12 02:05:52;;;;;;;;;9.75;9.75;26.90;99.90;;;;;;4966186;28;8847;-67
2022/09/12 02:08:34;;;;;;;;;7.40;7.40;26.90;99.90;;;;;;4957184;28;9048;-67
2022/09/12 02:11:10;;;;;;;;;7.00;7.00;26.90;99.90;;;;;;4974139;28;8903;-65
2022/09/12 02:14:04;;;;;;;;;7.60;7.60;26.80;99.90;;;;;;4983797;28;8843;-65
2022/09/12 02:16:43;;;;;;;;;9.00;9.00;26.70;99.90;;;;;;4954293;28;8851;-65
2022/09/12 02:19:23;;;;;;;;;9.25;9.25;26.80;99.90;;;;;;4984040;28;8854;-65
2022/09/12 02:21:57;;;;;;;;;9.20;9.20;26.80;99.90;;;;;;4983682;28;8859;-65
2022/09/12 02:24:38;;;;;;;;;7.00;7.00;26.70;99.90;;;;;;4957560;28;8873;-65
2022/09/12 02:27:15;;;;;;;;;7.60;7.60;26.70;99.90;;;;;;4959883;28;8855;-65
2022/09/12 02:29:45;;;;;;;;;9.00;9.00;26.70;99.90;;;;;;4954831;28;8862;-67
2022/09/12 02:32:48;;;;;;;;;9.50;9.50;26.60;99.90;;;;;;4957232;28;8915;-67
2022/09/12 02:35:57;;;;;;;;;8.25;8.25;26.60;99.90;;;;;;4953581;28;8905;-65
2022/09/12 02:38:48;;;;;;;;;6.80;6.80;26.50;99.90;;;;;;4947630;28;9616;-66
2022/09/12 02:41:20;;;;;;;;;8.00;8.00;26.50;99.90;;;;;;4978902;28;8920;-67
2022/09/12 02:43:54;;;;;;;;;6.00;6.00;26.50;99.90;;;;;;4966824;28;8835;-68
2022/09/12 02:46:35;;;;;;;;;6.50;6.50;26.50;99.90;;;;;;4940927;28;8842;-66
2022/09/12 02:49:06;;;;;;;;;8.00;8.00;26.40;99.90;;;;;;4952748;28;8831;-65
2022/09/12 02:51:40;;;;;;;;;7.25;7.25;26.40;99.90;;;;;;4962883;28;8874;-66
2022/09/12 02:54:16;;;;;;;;;8.00;8.00;26.30;99.90;;;;;;4952675;28;8897;-65
2022/09/12 02:56:47;;;;;;;;;9.00;9.00;26.30;99.90;;;;;;4983356;28;10042;-66
2022/09/12 02:59:20;;;;;;;;;8.75;8.75;26.30;99.90;;;;;;4951926;28;8851;-65
2022/09/12 03:01:56;;;;;;;;;7.00;7.00;26.30;99.90;;;;;;4953997;28;8871;-66
2022/09/12 03:04:45;;;;;;;;;8.25;8.25;26.20;99.90;;;;;;4956110;28;8874;-65
2022/09/12 03:07:21;;;;;;;;;6.00;6.00;26.20;99.90;;;;;;4978741;28;8847;-66
2022/09/12 03:10:31;;;;;;;;;7.00;7.00;26.20;99.90;;;;;;4953133;28;8872;-69
2022/09/12 03:13:23;;;;;;;;;9.00;9.00;26.10;99.90;;;;;;4953087;28;8874;-68
2022/09/12 03:16:19;;;;;;;;;7.00;7.00;26.10;99.90;;;;;;4956602;28;8970;-65
2022/09/12 03:19:07;;;;;;;;;8.00;8.00;26.10;99.90;;;;;;4983250;28;8842;-66
2022/09/12 03:21:55;;;;;;;;;7.00;7.00;26.00;99.90;;;;;;4953977;28;9005;-65
2022/09/12 03:24:37;;;;;;;;;7.00;7.00;26.00;99.90;;;;;;4956982;28;8858;-65
2022/09/12 03:27:18;;;;;;;;;7.25;7.25;26.00;99.90;;;;;;4982563;28;8843;-65
2022/09/12 03:29:53;;;;;;;;;9.00;9.00;26.00;99.90;;;;;;4953983;28;8851;-67
2022/09/12 03:32:47;;;;;;;;;7.00;7.00;26.00;99.90;;;;;;4954943;28;9574;-67
2022/09/12 03:35:21;;;;;;;;;6.25;6.25;25.90;99.90;;;;;;4967269;28;8832;-67
2022/09/12 03:37:58;;;;;;;;;8.00;8.00;25.80;99.90;;;;;;4956716;28;8843;-68
2022/09/12 03:40:28;;;;;;;;;8.00;8.00;25.80;99.90;;;;;;4955398;28;8847;-67
2022/09/12 03:42:59;;;;;;;;;7.00;7.00;25.80;99.90;;;;;;4956186;28;8889;-66
2022/09/12 03:45:30;;;;;;;;;6.25;6.25;25.80;99.90;;;;;;4954223;28;9114;-68
2022/09/12 03:48:05;;;;;;;;;9.75;8.00;25.70;99.90;;;;;;4955336;28;8861;-68
2022/09/12 03:50:34;;;;;;;;;8.00;8.00;25.70;99.90;;;;;;4970679;28;8835;-68
2022/09/12 03:53:05;;;;;;;;;8.25;8.25;25.70;99.90;;;;;;4957716;28;8886;-67
2022/09/12 03:55:39;;;;;;;;;9.25;9.25;25.60;99.90;;;;;;4956011;28;8850;-65
2022/09/12 03:58:10;;;;;;;;;7.50;7.50;25.60;99.90;;;;;;4952828;28;8866;-66
2022/09/12 04:00:43;;;;;;;;;6.50;6.50;25.70;99.90;;;;;;4951324;28;8847;-68
2022/09/12 04:03:14;;;;;;;;;7.25;7.25;25.60;99.90;;;;;;4957609;28;8859;-68
2022/09/12 04:05:45;;;;;;;;;10.00;10.00;25.50;99.90;;;;;;4977023;28;8986;-69
2022/09/12 04:08:17;;;;;;;;;8.50;8.50;25.40;99.90;;;;;;4950070;28;8873;-67
2022/09/12 04:10:48;;;;;;;;;9.50;9.50;25.40;99.90;;;;;;4956378;28;8835;-66
2022/09/12 04:13:19;;;;;;;;;10.00;10.00;25.30;99.90;;;;;;4968530;28;8876;-64
2022/09/12 04:15:59;;;;;;;;;9.50;8.00;25.40;99.90;;;;;;4952670;28;8878;-64
2022/09/12 04:18:30;;;;;;;;;8.75;8.75;25.20;99.90;;;;;;4953576;28;9600;-65
2022/09/12 04:21:17;;;;;;;;;8.75;8.75;25.30;99.90;;;;;;4954099;28;8866;-64
2022/09/12 04:23:49;;;;;;;;;7.75;7.75;25.20;99.90;;;;;;4955639;28;9577;-67
2022/09/12 04:26:21;;;;;;;;;9.00;7.25;25.10;99.90;;;;;;4938348;28;8893;-70
2022/09/12 04:28:56;;;;;;;;;8.00;8.00;25.20;99.90;;;;;;4954509;28;9913;-68
2022/09/12 04:31:29;;;;;;;;;8.75;8.75;25.10;99.90;;;;;;4952202;28;8875;-68
2022/09/12 04:34:02;;;;;;;;;6.75;6.75;25.10;99.90;;;;;;4953341;28;8883;-67
2022/09/12 04:36:35;;;;;;;;;8.25;8.25;25.10;99.90;;;;;;4949294;28;8866;-66
2022/09/12 04:39:06;;;;;;;;;6.00;6.00;25.10;99.90;;;;;;4953840;28;8905;-65
2022/09/12 04:41:40;;;;;;;;;6.75;6.75;25.00;99.90;;;;;;4950612;28;9768;-67
2022/09/12 04:44:15;;;;;;;;;9.00;9.00;25.00;99.90;;;;;;4979996;28;8866;-67
2022/09/12 04:46:48;;;;;;;;;8.50;8.50;25.00;99.90;;;;;;4979273;28;8882;-66
2022/09/12 04:49:18;;;;;;;;;6.25;6.25;24.90;99.90;;;;;;4953874;28;8873;-65
2022/09/12 04:51:54;;;;;;;;;7.00;7.00;24.90;99.90;;;;;;4954441;28;8851;-65
2022/09/12 04:54:26;;;;;;;;;8.00;8.00;25.00;99.90;;;;;;4952809;28;8875;-64
2022/09/12 04:56:58;;;;;;;;;9.50;9.50;25.00;99.90;;;;;;4953443;28;9641;-64
2022/09/12 04:59:32;;;;;;;;;8.25;7.25;24.90;99.90;;;;;;4948289;28;8884;-67
2022/09/12 05:02:04;;;;;;;;;9.25;9.25;24.90;99.90;;;;;;4953022;28;8885;-67
2022/09/12 05:04:35;;;;;;;;;9.75;9.75;24.80;99.90;;;;;;4954445;28;8885;-66
2022/09/12 05:07:07;;;;;;;;;8.50;8.50;24.80;99.90;;;;;;4953626;28;9001;-65
2022/09/12 05:09:38;;;;;;;;;8.00;8.00;24.80;99.90;;;;;;4976805;28;8854;-65
2022/09/12 05:12:09;;;;;;;;;9.25;9.25;24.80;99.90;;;;;;4949223;28;8858;-65
2022/09/12 05:14:41;;;;;;;;;6.00;6.00;24.80;99.90;;;;;;4966522;28;8981;-65
2022/09/12 05:17:14;;;;;;;;;7.00;7.00;24.70;99.90;;;;;;4967060;28;8847;-65
2022/09/12 05:19:47;;;;;;;;;8.25;8.25;24.70;99.90;;;;;;4950474;28;9440;-67
2022/09/12 05:22:19;;;;;;;;;9.00;9.00;24.60;99.90;;;;;;4981877;28;8851;-67
2022/09/12 05:24:51;;;;;;;;;7.00;7.00;24.60;99.90;;;;;;4951267;28;8858;-68
2022/09/12 05:27:21;;;;;;;;;7.00;7.00;24.70;99.90;;;;;;4952929;28;8851;-67
2022/09/12 05:29:56;;;;;;;;;8.50;8.00;24.60;99.90;;;;;;4980740;28;8865;-66
2022/09/12 05:32:31;;;;;;;;;8.00;8.00;24.50;99.90;;;;;;4982494;28;8875;-67
2022/09/12 05:35:02;;;;;;;;;8.75;8.75;24.40;99.90;;;;;;4955624;28;8909;-67
2022/09/12 05:37:34;;;;;;;;;6.00;6.00;24.30;99.90;;;;;;4956018;28;8866;-67
2022/09/12 05:40:07;;;;;;;;;5.75;5.75;24.50;99.90;;;;;;4951836;28;9013;-66
2022/09/12 05:42:43;;;;;;;;;5.00;5.00;24.30;99.90;;;;;;4985501;28;10919;-68
2022/09/12 05:45:14;;;;;;;;;8.75;8.75;24.30;99.90;;;;;;4937350;28;8866;-67
2022/09/12 05:47:48;;;;;;;;;6.50;6.50;24.30;99.90;;;;;;4956677;28;8894;-67
2022/09/12 05:50:17;;;;;;;;;8.00;8.00;24.30;99.90;;;;;;4958775;28;8857;-66
2022/09/12 05:52:50;;;;;;;;;9.00;9.00;24.30;99.90;;;;;;4958581;28;8898;-65
2022/09/12 05:55:24;;;;;;;;;7.00;7.00;24.20;99.90;;;;;;4957366;28;8896;-67
2022/09/12 05:57:54;;;;;;;;;8.25;8.25;24.20;99.90;;;;;;4974559;28;8932;-67
2022/09/12 06:00:24;;;;;;;;;7.25;7.25;24.10;99.90;;;;;;4954984;28;8867;-64
2022/09/12 06:03:00;;;;;;;;;8.25;7.00;24.10;99.90;;;;;;4973730;28;8887;-64
2022/09/12 06:05:32;;;;;;;;;7.75;7.75;24.10;99.90;;;;;;4971896;28;8870;-68
2022/09/12 06:08:05;;;;;;;;;7.25;7.25;24.00;99.90;;;;;;4982045;28;8877;-68
2022/09/12 06:10:36;;;;;;;;;9.00;9.00;23.90;99.90;;;;;;4972786;28;8850;-65
2022/09/12 06:13:05;;;;;;;;;7.50;7.50;23.70;99.90;;;;;;4955845;28;10773;-65
2022/09/12 06:15:36;;;;;;;;;8.50;7.75;23.70;99.90;;;;;;4956606;28;9018;-65
2022/09/12 06:18:07;;;;;;;;;7.25;7.25;23.70;99.90;;;;;;4953316;28;8855;-65
2022/09/12 06:20:41;;;;;;;;;11.25;11.00;23.70;99.90;;;;;;4959727;28;8850;-68
2022/09/12 06:23:11;;;;;;;;;6.00;6.00;23.60;99.90;;;;;;4967416;28;8897;-67
2022/09/12 06:25:49;;;;;;;;;8.00;8.00;23.50;99.90;;;;;;4973154;28;8834;-68
2022/09/12 06:28:22;;;;;;;;;8.50;8.50;23.50;99.90;;;;;;4961016;28;8889;-67
2022/09/12 06:30:52;;;;;;;;;11.75;10.25;23.50;99.90;;;;;;4957278;28;8883;-65
2022/09/12 06:33:24;;;;;;;;;8.00;8.00;23.50;99.90;;;;;;4960183;28;8859;-66
2022/09/12 06:35:54;;;;;;;;;9.75;9.75;23.40;99.90;;;;;;4959613;28;8851;-68
2022/09/12 06:38:25;;;;;;;;;10.25;10.25;23.40;99.90;;;;;;4959141;28;8861;-68
2022/09/12 06:40:56;;;;;;;;;7.00;7.00;23.40;99.90;;;;;;4956430;28;8876;-68
2022/09/12 06:43:28;;;;;;;;;8.75;8.50;23.40;99.90;;;;;;4982167;28;8875;-67
2022/09/12 06:46:00;;;;;;;;;8.00;8.00;23.40;99.90;;;;;;4960240;28;8871;-68
2022/09/12 06:48:31;;;;;;;;;8.00;8.00;23.50;99.90;;;;;;4958156;28;8878;-68
2022/09/12 06:51:07;;;;;;;;;8.00;7.00;23.30;99.90;;;;;;4956035;28;8885;-65
2022/09/12 06:53:38;;;;;;;;;8.00;8.00;23.20;99.90;;;;;;4968600;28;8863;-65
2022/09/12 06:56:13;;;;;;;;;8.25;8.25;23.20;99.90;;;;;;4973475;28;8885;-67
2022/09/12 06:58:49;;;;;;;;;7.75;7.75;23.20;99.90;;;;;;4957823;28;8800;-68
2022/09/12 07:01:23;;;;;;;;;9.00;9.00;23.10;99.90;;;;;;4960374;28;8882;-68
2022/09/12 07:03:58;;;;;;;;;8.00;8.00;23.00;99.90;;;;;;4980169;28;8851;-67
2022/09/12 07:06:33;;;;;;;;;6.50;6.50;23.00;99.90;;;;;;4955961;28;9530;-68
2022/09/12 07:09:08;;;;;;;;;6.25;6.25;23.10;99.90;;;;;;4955010;28;8880;-67
2022/09/12 07:11:44;;;;;;;;;8.00;8.00;23.00;99.90;;;;;;4952879;28;8858;-64
2022/09/12 07:14:16;;;;;;;;;7.75;7.75;23.10;99.90;;;;;;4954348;28;8885;-68
2022/09/12 07:16:48;;;;;;;;;7.75;7.75;23.20;99.90;;;;;;4938719;28;8886;-65
2022/09/12 07:19:18;;;;;;;;;9.00;9.00;23.20;99.90;;;;;;4952402;28;8859;-65
2022/09/12 07:21:48;;;;;;;;;9.25;9.25;23.30;99.90;;;;;;4952231;28;8867;-65
2022/09/12 07:24:22;;;;;;;;;7.00;7.00;23.20;99.90;;;;;;4955379;28;8857;-66
2022/09/12 07:26:53;;;;;;;;;7.50;7.50;23.10;99.90;;;;;;4953274;28;8846;-68
2022/09/12 07:29:26;;;;;;;;;11.00;11.00;23.00;99.90;;;;;;4956013;28;8901;-65
2022/09/12 07:32:06;;;;;;;;;9.25;9.00;22.90;99.90;;;;;;4950129;28;8855;-64
2022/09/12 07:34:39;;;;;;;;;11.00;9.75;22.70;99.90;;;;;;4958206;28;8897;-64
2022/09/12 07:37:09;;;;;;;;;4.50;4.50;22.60;99.90;;;;;;4966772;28;8874;-64
2022/09/12 07:39:40;;;;;;;;;8.25;8.25;22.60;99.90;;;;;;4954176;28;8988;-66
2022/09/12 07:42:15;;;;;;;;;9.00;8.75;22.80;99.90;;;;;;4953858;28;8930;-65
2022/09/12 07:44:47;;;;;;;;;7.50;7.50;22.80;99.90;;;;;;4955468;28;8846;-65
2022/09/12 07:47:17;;;;;;;;;8.25;8.25;22.90;99.90;;;;;;4967686;28;8826;-64
2022/09/12 07:49:47;;;;;;;;;9.00;9.00;23.00;99.90;;;;;;4957444;28;8839;-65
2022/09/12 07:52:19;;;;;;;;;8.00;8.00;22.80;99.90;;;;;;4951847;28;8867;-64
2022/09/12 07:54:49;;;;;;;;;8.25;8.25;22.70;99.90;;;;;;4955003;28;8902;-65
2022/09/12 07:57:20;;;;;;;;;9.50;9.50;22.70;99.90;;;;;;4952486;28;8843;-65
2022/09/12 07:59:50;;;;;;;;;7.00;7.00;22.60;99.90;;;;;;4955682;28;8839;-65
2022/09/12 08:02:22;;;;;;;;;7.00;7.00;22.60;99.90;;;;;;4951482;28;8851;-64
2022/09/12 08:04:53;;;;;;;;;7.25;7.25;22.50;99.90;;;;;;4952963;28;9032;-69
2022/09/12 08:07:25;;;;;;;;;8.25;8.25;22.50;99.90;;;;;;4981934;28;8913;-68
2022/09/12 08:09:59;;;;;;;;;9.00;9.00;22.40;99.90;;;;;;4969440;28;8952;-65
2022/09/12 08:12:33;;;;;;;;;9.00;9.00;22.40;99.90;;;;;;4956426;28;8846;-65
2022/09/12 08:15:03;;;;;;;;;7.75;7.75;22.40;99.90;;;;;;4956216;28;8871;-67
2022/09/12 08:17:33;;;;;;;;;6.00;6.00;22.40;99.90;;;;;;4956905;28;8858;-67
2022/09/12 08:20:08;;;;;;;;;8.00;8.00;22.50;99.90;;;;;;4955725;28;8869;-65
2022/09/12 08:22:39;;;;;;;;;8.00;8.00;22.70;99.90;;;;;;4955142;28;8859;-68
2022/09/12 08:25:09;;;;;;;;;8.75;8.75;22.90;99.90;;;;;;4950463;28;8909;-65
2022/09/12 08:27:41;;;;;;;;;9.75;9.75;22.70;99.90;;;;;;4979194;28;8872;-64
2022/09/12 08:30:12;;;;;;;;;7.50;7.50;22.70;99.90;;;;;;4964765;28;8895;-67
2022/09/12 08:32:46;;;;;;;;;9.25;9.25;22.80;99.90;;;;;;4944978;28;8873;-68
2022/09/12 08:35:18;;;;;;;;;7.75;7.75;22.70;99.90;;;;;;4953254;28;8857;-67
2022/09/12 08:37:49;;;;;;;;;9.00;9.00;22.60;99.90;;;;;;4970161;28;8870;-67
2022/09/12 08:40:21;;;;;;;;;8.50;8.50;22.80;99.90;;;;;;4978754;28;9028;-68
2022/09/12 08:43:31;;;;;;;;;7.75;7.75;22.70;99.90;;;;;;4983877;28;8851;-67
2022/09/12 08:46:16;;;;;;;;;7.75;7.75;22.80;99.90;;;;;;4982166;28;8848;-65
2022/09/12 08:48:47;;;;;;;;;7.25;7.25;22.70;99.90;;;;;;4952668;28;9018;-64
2022/09/12 08:51:20;;;;;;;;;7.00;7.00;22.70;99.90;;;;;;4981112;28;8871;-67
2022/09/12 08:53:55;;;;;;;;;8.75;8.25;22.70;99.90;;;;;;4957002;28;9621;-68
2022/09/12 08:56:29;;;;;;;;;7.25;7.25;22.60;99.90;;;;;;4952548;28;8855;-67
2022/09/12 08:58:59;;;;;;;;;8.00;8.00;22.60;99.90;;;;;;4966819;28;9509;-67
2022/09/12 09:01:42;;;;;;;;;8.75;8.75;22.60;99.90;;;;;;4970431;28;8846;-66
2022/09/12 09:04:30;;;;;;;;;7.25;7.25;22.50;99.90;;;;;;4951819;28;8874;-65
2022/09/12 09:07:50;;;;;;;;;8.00;8.00;22.50;99.90;;;;;;4955284;28;8974;-68
2022/09/12 09:10:43;;;;;;;;;8.00;8.00;22.50;99.90;;;;;;4960971;28;8843;-64
2022/09/12 09:16:41;;;;;;;;;8.25;7.00;22.50;99.90;;;;;;4955926;28;8865;-66
2022/09/12 09:19:24;;;;;;;;;7.50;7.50;22.60;99.90;;;;;;4956760;28;8854;-68
2022/09/12 09:22:21;;;;;;;;;9.00;8.25;22.60;99.90;;;;;;4960873;28;8862;-65
2022/09/12 09:25:01;;;;;;;;;7.75;7.75;22.50;99.90;;;;;;4952300;28;9593;-65
2022/09/12 09:27:48;;;;;;;;;7.25;7.25;22.50;99.90;;;;;;4957402;28;8874;-65
2022/09/12 09:30:21;;;;;;;;;9.25;9.25;22.40;99.90;;;;;;4955816;28;8870;-68
2022/09/12 09:32:57;;;;;;;;;7.75;7.75;22.30;99.90;;;;;;4976759;28;8854;-68
2022/09/12 09:35:30;;;;;;;;;7.00;7.00;22.30;99.90;;;;;;4958065;28;8843;-65
2022/09/12 09:38:13;;;;;;;;;9.00;9.00;22.30;99.90;;;;;;4958040;28;8859;-66
2022/09/12 09:40:53;;;;;;;;;7.25;7.25;22.20;99.90;;;;;;4959625;28;8879;-67
2022/09/12 09:43:27;;;;;;;;;10.75;10.75;22.20;99.90;;;;;;4958616;28;8940;-68
2022/09/12 09:46:15;;;;;;;;;9.25;9.25;22.10;99.90;;;;;;4962508;28;8887;-65
2022/09/12 09:48:50;;;;;;;;;9.00;9.00;22.20;99.90;;;;;;4956291;28;8830;-64
2022/09/12 09:51:31;;;;;;;;;7.50;7.50;22.10;99.90;;;;;;4971509;28;8874;-65
2022/09/12 09:54:34;;;;;;;;;7.75;7.75;22.00;99.90;;;;;;4953823;28;8859;-65
2022/09/12 09:57:40;;;;;;;;;9.00;9.00;22.00;99.90;;;;;;4970369;28;8939;-68
2022/09/12 10:00:26;;;;;;;;;9.00;9.00;22.00;99.90;;;;;;4956109;28;8863;-68
2022/09/12 10:03:12;;;;;;;;;8.50;8.50;22.00;99.90;;;;;;4960713;28;8843;-68
2022/09/12 10:06:06;;;;;;;;;10.00;10.00;21.90;99.90;;;;;;4953454;28;8881;-65
2022/09/12 10:08:38;;;;;;;;;5.25;4.75;21.90;99.90;;;;;;4955823;28;8851;-66
2022/09/12 10:11:25;;;;;;;;;8.00;8.00;21.90;99.90;;;;;;4956018;28;8882;-65
2022/09/12 10:13:59;;;;;;;;;5.00;5.00;21.90;99.90;;;;;;4961740;28;8929;-66
2022/09/12 10:16:51;;;;;;;;;6.00;6.00;21.80;99.90;;;;;;4953797;28;8874;-68
2022/09/12 10:19:23;;;;;;;;;7.75;7.75;21.90;99.90;;;;;;4955101;28;8850;-68
2022/09/12 10:22:01;;;;;;;;;8.00;8.00;21.80;99.90;;;;;;4974116;28;8871;-65
2022/09/12 10:24:39;;;;;;;;;7.25;7.25;21.90;99.90;;;;;;4980903;28;8893;-65
2022/09/12 10:27:19;;;;;;;;;7.00;7.00;21.80;99.90;;;;;;4955818;28;9614;-65
2022/09/12 10:29:59;;;;;;;;;7.00;7.00;21.70;99.90;;;;;;4956337;28;8869;-68
2022/09/12 10:32:40;;;;;;;;;9.25;9.25;21.80;99.90;;;;;;4953524;28;8878;-68
2022/09/12 10:35:32;;;;;;;;;9.75;9.75;21.80;99.90;;;;;;4956201;28;8858;-65
2022/09/12 10:38:37;;;;;;;;;8.75;8.75;21.90;99.90;;;;;;4954342;28;8851;-65
2022/09/12 10:41:11;;;;;;;;;9.25;9.25;21.70;99.90;;;;;;4953258;28;8869;-65
2022/09/12 10:43:42;;;;;;;;;5.50;5.50;21.80;99.90;;;;;;4954531;28;8855;-65
2022/09/12 10:46:15;;;;;;;;;5.75;5.75;21.80;99.90;;;;;;4952792;28;8806;-64
2022/09/12 10:48:48;;;;;;;;;10.00;10.00;21.70;99.90;;;;;;4954722;28;8953;-68
2022/09/12 10:51:24;;;;;;;;;8.75;8.75;21.70;99.90;;;;;;4958663;28;9020;-64
2022/09/12 10:53:58;;;;;;;;;8.00;8.00;21.80;99.90;;;;;;4955372;28;8847;-65
2022/09/12 10:56:38;;;;;;;;;7.50;7.50;21.70;99.90;;;;;;4953635;28;8855;-68
2022/09/12 10:59:31;;;;;;;;;8.50;8.50;21.80;99.90;;;;;;4955878;28;8862;-68
2022/09/12 11:02:24;;;;;;;;;8.25;8.25;21.70;99.90;;;;;;4955905;28;8854;-65
2022/09/12 11:05:17;;;;;;;;;8.50;8.50;21.70;99.90;;;;;;4950802;28;8865;-68
2022/09/12 11:08:03;;;;;;;;;7.75;7.75;21.60;99.90;;;;;;4951663;28;8890;-68
2022/09/12 11:10:42;;;;;;;;;6.50;6.50;21.60;99.90;;;;;;4958987;28;8908;-67
2022/09/12 11:13:42;;;;;;;;;7.50;7.50;21.80;99.90;;;;;;4977537;28;8850;-68
2022/09/12 11:16:29;;;;;;;;;7.50;7.50;21.70;99.90;;;;;;4952108;28;8851;-65
2022/09/12 11:19:21;;;;;;;;;7.75;7.75;21.60;99.90;;;;;;4955891;28;8878;-65
2022/09/12 11:22:29;;;;;;;;;7.00;7.00;21.60;99.90;;;;;;4953415;28;8888;-67
2022/09/12 11:25:28;;;;;;;;;7.75;7.75;21.70;99.90;;;;;;4939241;28;8862;-64
2022/09/12 11:28:17;;;;;;;;;8.00;8.00;21.70;99.90;;;;;;4956683;28;8842;-65
2022/09/12 11:30:56;;;;;;;;;7.25;7.25;21.50;99.90;;;;;;4958963;28;8845;-64
2022/09/12 11:33:45;;;;;;;;;6.75;6.75;21.50;99.90;;;;;;4952814;28;9572;-65
2022/09/12 11:36:23;;;;;;;;;8.50;8.50;21.50;99.90;;;;;;4957771;28;8862;-68
2022/09/12 11:39:20;;;;;;;;;7.00;7.00;21.50;99.90;;;;;;4953365;28;8839;-68
2022/09/12 11:41:59;;;;;;;;;11.00;9.75;21.50;99.90;;;;;;4954997;28;8854;-65
2022/09/12 11:44:42;;;;;;;;;6.75;6.75;21.40;99.90;;;;;;4954112;28;8834;-69
2022/09/12 11:47:17;;;;;;;;;7.50;7.50;21.50;99.90;;;;;;4981358;28;8859;-66
2022/09/12 11:49:51;;;;;;;;;7.00;7.00;21.40;99.90;;;;;;4960239;28;8887;-66
2022/09/12 11:52:24;;;;;;;;;8.75;8.75;21.30;99.90;;;;;;4954655;28;8827;-65
2022/09/12 11:55:16;;;;;;;;;6.75;6.75;21.40;99.90;;;;;;4956191;28;8881;-66
2022/09/12 11:57:55;;;;;;;;;10.00;10.00;21.30;99.90;;;;;;4957183;28;8855;-65
2022/09/12 12:00:36;;;;;;;;;9.00;9.00;21.40;99.90;;;;;;4952517;28;8887;-68
2022/09/12 12:03:06;;;;;;;;;9.75;9.75;21.30;99.90;;;;;;4955241;28;9040;-68
2022/09/12 12:05:50;;;;;;;;;8.50;8.50;21.20;99.90;;;;;;4954636;28;8872;-67
2022/09/12 12:08:26;;;;;;;;;6.75;6.75;21.10;99.90;;;;;;4957317;28;8831;-68
2022/09/12 12:11:00;;;;;;;;;8.50;8.50;21.10;99.90;;;;;;4987089;28;9036;-66
2022/09/12 12:13:54;;;;;;;;;8.50;8.50;21.10;99.90;;;;;;4957471;28;8873;-65
2022/09/12 12:16:27;;;;;;;;;8.00;8.00;21.10;99.90;;;;;;4950606;28;10866;-68
2022/09/12 12:19:26;;;;;;;;;7.50;7.50;21.10;99.90;;;;;;4956457;28;9664;-67
2022/09/12 12:22:08;;;;;;;;;9.75;9.75;21.20;99.90;;;;;;4956423;28;8879;-67
2022/09/12 12:25:02;;;;;;;;;7.50;7.50;21.00;99.90;;;;;;4983355;28;8853;-68
2022/09/12 12:28:04;;;;;;;;;9.00;9.00;21.00;99.90;;;;;;4949157;28;8865;-68
2022/09/12 12:30:36;;;;;;;;;11.00;9.50;20.90;99.90;;;;;;4955710;28;8851;-64
2022/09/12 12:33:26;;;;;;;;;8.50;8.50;21.00;99.90;;;;;;4981559;28;8831;-65
2022/09/12 12:35:59;;;;;;;;;9.75;9.75;21.20;99.90;;;;;;4958367;28;8878;-67
2022/09/12 12:38:35;;;;;;;;;11.75;11.75;21.10;99.90;;;;;;4953200;28;8978;-68
2022/09/12 12:41:18;;;;;;;;;9.50;9.50;21.20;99.90;;;;;;4981743;28;8831;-65
2022/09/12 12:43:52;;;;;;;;;10.25;10.00;21.00;99.90;;;;;;4981029;28;8862;-65
2022/09/12 12:46:25;;;;;;;;;9.75;9.75;21.10;99.90;;;;;;4969306;28;8865;-66
2022/09/12 12:49:25;;;;;;;;;8.50;8.50;21.10;99.90;;;;;;4946957;28;9938;-65
2022/09/12 12:52:00;;;;;;;;;10.00;10.00;21.10;99.90;;;;;;4951802;28;8879;-65
2022/09/12 12:54:51;;;;;;;;;10.50;10.50;21.30;99.90;;;;;;4949259;28;8854;-65
2022/09/12 12:57:28;;;;;;;;;8.00;8.00;21.40;99.90;;;;;;4950246;28;8876;-65
2022/09/12 13:00:22;;;;;;;;;9.25;9.25;21.40;99.90;;;;;;4954883;28;8886;-68
2022/09/12 13:03:07;;;;;;;;;8.25;8.00;21.40;99.90;;;;;;4955337;28;8870;-69
2022/09/12 13:05:45;;;;;;;;;9.00;9.00;21.50;99.90;;;;;;4955258;28;8858;-65
2022/09/12 13:08:17;;;;;;;;;7.00;7.00;21.40;99.90;;;;;;4951199;28;8903;-65
2022/09/12 13:11:26;;;;;;;;;9.00;9.00;21.40;99.90;;;;;;4953820;28;8878;-64
2022/09/12 13:14:26;;;;;;;;;9.00;9.00;21.50;99.90;;;;;;4953989;28;8886;-66
2022/09/12 13:17:01;;;;;;;;;8.75;8.75;21.70;99.90;;;;;;4969556;28;8901;-68
2022/09/12 13:19:35;;;;;;;;;9.25;9.25;21.80;99.90;;;;;;4960494;28;8854;-66
2022/09/12 13:22:08;;;;;;;;;8.75;8.75;21.80;99.90;;;;;;4954684;28;8866;-69
2022/09/12 13:24:51;;;;;;;;;9.00;8.50;21.90;99.90;;;;;;4955121;28;8865;-69
2022/09/12 13:27:24;;;;;;;;;10.25;10.00;21.80;99.90;;;;;;4968509;28;8839;-68
2022/09/12 13:30:12;;;;;;;;;9.00;9.00;21.90;99.90;;;;;;4964794;28;8873;-68
2022/09/12 13:32:45;;;;;;;;;10.00;9.00;21.80;99.90;;;;;;4955414;28;8846;-68
2022/09/12 13:35:31;;;;;;;;;10.00;10.00;22.00;99.90;;;;;;4954093;28;8878;-68
2022/09/12 13:38:19;;;;;;;;;10.75;10.75;22.10;99.90;;;;;;4950960;28;8867;-68
2022/09/12 13:41:05;;;;;;;;;10.00;10.00;22.20;99.90;;;;;;4952710;28;8875;-66
2022/09/12 13:43:42;;;;;;;;;9.00;9.00;22.20;99.90;;;;;;4952052;28;8846;-65
2022/09/12 13:46:20;;;;;;;;;7.25;7.25;22.20;99.90;;;;;;4980706;28;8876;-67
2022/09/12 13:48:51;;;;;;;;;8.50;8.50;22.30;99.90;;;;;;4966105;28;8839;-68
2022/09/12 13:51:28;;;;;;;;;8.25;8.25;22.40;99.90;;;;;;4977884;28;8938;-66
2022/09/12 13:54:05;;;;;;;;;8.50;8.50;22.40;99.90;;;;;;4946609;28;8874;-66
2022/09/12 13:56:48;;;;;;;;;8.25;8.25;22.50;99.90;;;;;;4953593;28;8897;-66